sensor_id;sensor_type;location;lat;lon;timestamp;pressure;altitude;pressure_sealevel;temperature;humidity
79707;BME280;69200;53.612;-2.416;2023-07-29T00:00:42;98599.28;;;16.20;79.14
79707;BME280;69200;53.612;-2.416;2023-07-29T00:03:07;98606.09;;;16.22;78.88
79707;BME280;69200;53.612;-2.416;2023-07-29T00:05:33;98597.84;;;16.36;78.41
79707;BME280;69200;53.612;-2.416;2023-07-29T00:07:58;98599.00;;;16.21;78.15
79707;BME280;69200;53.612;-2.416;2023-07-29T00:10:24;98598.63;;;16.01;78.38
79707;BME280;69200;53.612;-2.416;2023-07-29T00:12:49;98594.34;;;16.22;78.58
79707;BME280;69200;53.612;-2.416;2023-07-29T00:15:14;98594.81;;;15.74;77.00
79707;BME280;69200;53.612;-2.416;2023-07-29T00:17:40;98592.31;;;16.14;83.03
79707;BME280;69200;53.612;-2.416;2023-07-29T00:20:06;98591.78;;;16.12;78.38
79707;BME280;69200;53.612;-2.416;2023-07-29T00:22:32;98582.84;;;16.20;80.88
79707;BME280;69200;53.612;-2.416;2023-07-29T00:24:57;98585.66;;;16.06;82.17
79707;BME280;69200;53.612;-2.416;2023-07-29T00:27:25;98575.63;;;15.88;78.34
79707;BME280;69200;53.612;-2.416;2023-07-29T00:29:50;98578.84;;;16.04;81.92
79707;BME280;69200;53.612;-2.416;2023-07-29T00:32:16;98585.72;;;16.15;78.06
79707;BME280;69200;53.612;-2.416;2023-07-29T00:34:41;98571.81;;;15.75;80.21
79707;BME280;69200;53.612;-2.416;2023-07-29T00:37:07;98583.56;;;15.62;78.89
79707;BME280;69200;53.612;-2.416;2023-07-29T00:39:32;98585.19;;;15.77;77.59
79707;BME280;69200;53.612;-2.416;2023-07-29T00:41:58;98571.06;;;15.56;78.13
79707;BME280;69200;53.612;-2.416;2023-07-29T00:44:24;98573.09;;;16.05;82.83
79707;BME280;69200;53.612;-2.416;2023-07-29T00:46:51;98574.53;;;16.25;79.88
79707;BME280;69200;53.612;-2.416;2023-07-29T00:49:18;98577.94;;;15.94;77.63
79707;BME280;69200;53.612;-2.416;2023-07-29T00:51:44;98560.78;;;15.80;79.64
79707;BME280;69200;53.612;-2.416;2023-07-29T00:54:09;98565.78;;;16.01;79.16
79707;BME280;69200;53.612;-2.416;2023-07-29T00:56:35;98570.16;;;15.88;79.46
79707;BME280;69200;53.612;-2.416;2023-07-29T00:59:01;98570.34;;;16.05;80.86
79707;BME280;69200;53.612;-2.416;2023-07-29T01:01:28;98576.47;;;15.88;78.05
79707;BME280;69200;53.612;-2.416;2023-07-29T01:03:53;98567.09;;;16.03;77.59
79707;BME280;69200;53.612;-2.416;2023-07-29T01:09:14;98568.28;;;16.11;81.45
79707;BME280;69200;53.612;-2.416;2023-07-29T01:11:56;98561.28;;;15.82;79.82
79707;BME280;69200;53.612;-2.416;2023-07-29T01:14:47;98551.13;;;15.97;80.86
79707;BME280;69200;53.612;-2.416;2023-07-29T01:17:23;98553.47;;;15.89;80.34
79707;BME280;69200;53.612;-2.416;2023-07-29T01:20:08;98557.59;;;16.01;80.34
79707;BME280;69200;53.612;-2.416;2023-07-29T01:22:36;98550.47;;;16.13;79.60
79707;BME280;69200;53.612;-2.416;2023-07-29T01:25:02;98551.94;;;15.97;80.80
79707;BME280;69200;53.612;-2.416;2023-07-29T01:27:28;98557.31;;;15.88;79.68
79707;BME280;69200;53.612;-2.416;2023-07-29T01:29:54;98549.31;;;15.78;77.41
79707;BME280;69200;53.612;-2.416;2023-07-29T01:35:18;98539.63;;;15.72;78.88
79707;BME280;69200;53.612;-2.416;2023-07-29T01:37:48;98539.38;;;15.82;79.33
79707;BME280;69200;53.612;-2.416;2023-07-29T01:40:15;98543.03;;;15.36;75.88
79707;BME280;69200;53.612;-2.416;2023-07-29T01:42:41;98544.16;;;15.22;75.11
79707;BME280;69200;53.612;-2.416;2023-07-29T01:45:06;98531.59;;;15.21;77.90
79707;BME280;69200;53.612;-2.416;2023-07-29T01:47:32;98536.16;;;15.53;79.89
79707;BME280;69200;53.612;-2.416;2023-07-29T01:49:57;98531.19;;;15.55;77.36
79707;BME280;69200;53.612;-2.416;2023-07-29T01:52:22;98542.66;;;15.43;76.81
79707;BME280;69200;53.612;-2.416;2023-07-29T01:54:48;98540.09;;;15.60;77.74
79707;BME280;69200;53.612;-2.416;2023-07-29T01:57:13;98539.22;;;15.65;77.75
79707;BME280;69200;53.612;-2.416;2023-07-29T01:59:38;98545.88;;;15.31;76.37
79707;BME280;69200;53.612;-2.416;2023-07-29T02:02:04;98536.97;;;15.53;78.24
79707;BME280;69200;53.612;-2.416;2023-07-29T02:04:29;98541.97;;;15.65;76.86
79707;BME280;69200;53.612;-2.416;2023-07-29T02:06:55;98551.88;;;15.75;78.91
79707;BME280;69200;53.612;-2.416;2023-07-29T02:09:20;98550.50;;;15.86;80.80
79707;BME280;69200;53.612;-2.416;2023-07-29T02:11:46;98551.38;;;15.73;77.51
79707;BME280;69200;53.612;-2.416;2023-07-29T02:14:11;98552.84;;;15.92;80.79
79707;BME280;69200;53.612;-2.416;2023-07-29T02:16:36;98552.94;;;15.87;78.02
79707;BME280;69200;53.612;-2.416;2023-07-29T02:19:02;98556.84;;;16.09;79.82
79707;BME280;69200;53.612;-2.416;2023-07-29T02:21:28;98554.75;;;16.06;81.80
79707;BME280;69200;53.612;-2.416;2023-07-29T02:23:53;98555.72;;;16.10;80.66
79707;BME280;69200;53.612;-2.416;2023-07-29T02:26:19;98546.91;;;16.13;79.76
79707;BME280;69200;53.612;-2.416;2023-07-29T02:28:44;98548.88;;;15.99;79.33
79707;BME280;69200;53.612;-2.416;2023-07-29T02:31:14;98543.75;;;15.83;79.25
79707;BME280;69200;53.612;-2.416;2023-07-29T02:33:40;98546.13;;;15.99;79.83
79707;BME280;69200;53.612;-2.416;2023-07-29T02:36:06;98541.44;;;16.35;80.68
79707;BME280;69200;53.612;-2.416;2023-07-29T02:38:31;98542.75;;;16.15;79.94
79707;BME280;69200;53.612;-2.416;2023-07-29T02:40:56;98537.97;;;16.21;80.48
79707;BME280;69200;53.612;-2.416;2023-07-29T02:43:22;98527.56;;;16.32;82.11
79707;BME280;69200;53.612;-2.416;2023-07-29T02:45:47;98530.22;;;16.01;77.55
79707;BME280;69200;53.612;-2.416;2023-07-29T02:48:13;98537.44;;;16.19;80.67
79707;BME280;69200;53.612;-2.416;2023-07-29T02:50:38;98545.66;;;16.19;80.60
79707;BME280;69200;53.612;-2.416;2023-07-29T02:53:04;98527.78;;;15.99;77.48
79707;BME280;69200;53.612;-2.416;2023-07-29T02:55:29;98529.47;;;16.09;78.64
79707;BME280;69200;53.612;-2.416;2023-07-29T02:57:54;98529.41;;;16.00;79.92
79707;BME280;69200;53.612;-2.416;2023-07-29T03:00:20;98529.59;;;16.04;79.17
79707;BME280;69200;53.612;-2.416;2023-07-29T03:02:45;98533.06;;;15.95;80.38
79707;BME280;69200;53.612;-2.416;2023-07-29T03:05:11;98520.56;;;15.67;79.55
79707;BME280;69200;53.612;-2.416;2023-07-29T03:07:36;98516.78;;;15.90;78.56
79707;BME280;69200;53.612;-2.416;2023-07-29T03:10:01;98516.91;;;15.72;79.61
79707;BME280;69200;53.612;-2.416;2023-07-29T03:12:27;98511.22;;;15.82;81.39
79707;BME280;69200;53.612;-2.416;2023-07-29T03:14:52;98522.66;;;15.84;81.68
79707;BME280;69200;53.612;-2.416;2023-07-29T03:17:18;98514.16;;;15.72;81.06
79707;BME280;69200;53.612;-2.416;2023-07-29T03:19:43;98514.09;;;15.22;78.46
79707;BME280;69200;53.612;-2.416;2023-07-29T03:22:09;98519.28;;;15.64;81.40
79707;BME280;69200;53.612;-2.416;2023-07-29T03:24:34;98515.78;;;15.59;80.75
79707;BME280;69200;53.612;-2.416;2023-07-29T03:26:59;98520.75;;;15.84;81.69
79707;BME280;69200;53.612;-2.416;2023-07-29T03:29:25;98516.63;;;15.73;81.58
79707;BME280;69200;53.612;-2.416;2023-07-29T03:31:50;98509.72;;;15.62;81.09
79707;BME280;69200;53.612;-2.416;2023-07-29T03:34:15;98516.91;;;15.72;78.86
79707;BME280;69200;53.612;-2.416;2023-07-29T03:36:41;98514.88;;;15.63;77.89
79707;BME280;69200;53.612;-2.416;2023-07-29T03:39:06;98511.53;;;15.80;82.75
79707;BME280;69200;53.612;-2.416;2023-07-29T03:41:32;98514.78;;;15.82;79.34
79707;BME280;69200;53.612;-2.416;2023-07-29T03:43:58;98516.81;;;15.63;78.45
79707;BME280;69200;53.612;-2.416;2023-07-29T03:46:25;98520.56;;;15.53;79.69
79707;BME280;69200;53.612;-2.416;2023-07-29T03:48:50;98527.13;;;15.52;81.46
79707;BME280;69200;53.612;-2.416;2023-07-29T03:51:16;98523.78;;;15.55;79.61
79707;BME280;69200;53.612;-2.416;2023-07-29T03:53:41;98516.41;;;15.70;80.67
79707;BME280;69200;53.612;-2.416;2023-07-29T03:56:07;98516.31;;;15.61;79.98
79707;BME280;69200;53.612;-2.416;2023-07-29T03:58:33;98514.47;;;15.70;80.71
79707;BME280;69200;53.612;-2.416;2023-07-29T04:00:58;98523.09;;;15.63;80.19
79707;BME280;69200;53.612;-2.416;2023-07-29T04:03:24;98500.59;;;15.53;79.69
79707;BME280;69200;53.612;-2.416;2023-07-29T04:05:49;98515.28;;;15.16;80.55
79707;BME280;69200;53.612;-2.416;2023-07-29T04:08:14;98511.19;;;15.32;82.00
79707;BME280;69200;53.612;-2.416;2023-07-29T04:10:40;98509.84;;;15.16;81.85
79707;BME280;69200;53.612;-2.416;2023-07-29T04:13:05;98510.47;;;15.26;80.39
79707;BME280;69200;53.612;-2.416;2023-07-29T04:15:31;98510.56;;;15.35;80.23
79707;BME280;69200;53.612;-2.416;2023-07-29T04:17:56;98517.31;;;15.37;81.60
79707;BME280;69200;53.612;-2.416;2023-07-29T04:20:22;98511.97;;;15.32;83.02
79707;BME280;69200;53.612;-2.416;2023-07-29T04:22:47;98521.78;;;15.20;81.59
79707;BME280;69200;53.612;-2.416;2023-07-29T04:25:12;98514.19;;;15.30;82.84
79707;BME280;69200;53.612;-2.416;2023-07-29T04:27:38;98518.13;;;15.52;81.40
79707;BME280;69200;53.612;-2.416;2023-07-29T04:30:04;98517.72;;;15.58;81.62
79707;BME280;69200;53.612;-2.416;2023-07-29T04:32:30;98520.25;;;15.69;81.66
79707;BME280;69200;53.612;-2.416;2023-07-29T04:34:55;98509.41;;;15.63;79.99
79707;BME280;69200;53.612;-2.416;2023-07-29T04:37:20;98520.97;;;15.74;79.58
79707;BME280;69200;53.612;-2.416;2023-07-29T04:39:46;98520.47;;;15.45;78.62
79707;BME280;69200;53.612;-2.416;2023-07-29T04:42:12;98524.09;;;15.81;80.16
79707;BME280;69200;53.612;-2.416;2023-07-29T04:44:37;98516.72;;;15.68;77.90
79707;BME280;69200;53.612;-2.416;2023-07-29T04:47:02;98523.56;;;15.79;80.50
79707;BME280;69200;53.612;-2.416;2023-07-29T04:49:28;98528.72;;;15.94;80.14
79707;BME280;69200;53.612;-2.416;2023-07-29T04:51:53;98527.94;;;15.80;79.93
79707;BME280;69200;53.612;-2.416;2023-07-29T04:54:19;98531.19;;;15.69;77.12
79707;BME280;69200;53.612;-2.416;2023-07-29T04:56:46;98527.25;;;15.61;78.83
79707;BME280;69200;53.612;-2.416;2023-07-29T04:59:11;98526.34;;;15.65;80.06
79707;BME280;69200;53.612;-2.416;2023-07-29T05:01:38;98530.88;;;15.70;81.29
79707;BME280;69200;53.612;-2.416;2023-07-29T05:04:03;98512.28;;;15.72;78.42
79707;BME280;69200;53.612;-2.416;2023-07-29T05:06:29;98519.44;;;15.54;82.04
79707;BME280;69200;53.612;-2.416;2023-07-29T05:08:56;98527.16;;;15.66;80.36
79707;BME280;69200;53.612;-2.416;2023-07-29T05:11:22;98518.84;;;15.71;80.10
79707;BME280;69200;53.612;-2.416;2023-07-29T05:13:47;98522.56;;;15.89;81.22
79707;BME280;69200;53.612;-2.416;2023-07-29T05:16:12;98522.66;;;15.84;79.11
79707;BME280;69200;53.612;-2.416;2023-07-29T05:18:38;98521.78;;;15.75;78.20
79707;BME280;69200;53.612;-2.416;2023-07-29T05:21:03;98521.97;;;15.51;79.56
79707;BME280;69200;53.612;-2.416;2023-07-29T05:23:29;98521.69;;;15.25;80.44
79707;BME280;69200;53.612;-2.416;2023-07-29T05:25:54;98521.88;;;15.28;79.34
79707;BME280;69200;53.612;-2.416;2023-07-29T05:28:19;98521.41;;;15.40;80.13
79707;BME280;69200;53.612;-2.416;2023-07-29T05:30:45;98524.91;;;15.54;80.92
79707;BME280;69200;53.612;-2.416;2023-07-29T05:33:10;98524.81;;;15.59;79.01
79707;BME280;69200;53.612;-2.416;2023-07-29T05:35:36;98522.16;;;15.82;81.99
79707;BME280;69200;53.612;-2.416;2023-07-29T05:38:02;98526.13;;;15.76;78.55
79707;BME280;69200;53.612;-2.416;2023-07-29T05:40:28;98517.59;;;15.91;78.87
79707;BME280;69200;53.612;-2.416;2023-07-29T05:42:53;98527.59;;;15.95;76.92
79707;BME280;69200;53.612;-2.416;2023-07-29T05:45:19;98517.50;;;15.82;76.32
79707;BME280;69200;53.612;-2.416;2023-07-29T05:47:44;98517.31;;;16.37;76.47
79707;BME280;69200;53.612;-2.416;2023-07-29T05:50:10;98511.91;;;16.99;76.19
79707;BME280;69200;53.612;-2.416;2023-07-29T05:52:36;98517.38;;;17.39;73.13
79707;BME280;69200;53.612;-2.416;2023-07-29T05:55:01;98510.75;;;17.40;72.29
79707;BME280;69200;53.612;-2.416;2023-07-29T05:57:27;98508.13;;;17.18;72.74
79707;BME280;69200;53.612;-2.416;2023-07-29T05:59:53;98505.81;;;16.71;74.78
79707;BME280;69200;53.612;-2.416;2023-07-29T06:02:18;98519.84;;;16.34;72.90
79707;BME280;69200;53.612;-2.416;2023-07-29T06:04:44;98510.72;;;16.16;76.33
79707;BME280;69200;53.612;-2.416;2023-07-29T06:07:09;98524.03;;;15.95;76.16
79707;BME280;69200;53.612;-2.416;2023-07-29T06:09:35;98523.53;;;16.07;79.25
79707;BME280;69200;53.612;-2.416;2023-07-29T06:12:00;98520.88;;;16.02;75.56
79707;BME280;69200;53.612;-2.416;2023-07-29T06:14:26;98504.91;;;16.17;78.05
79707;BME280;69200;53.612;-2.416;2023-07-29T06:16:51;98498.63;;;15.94;77.06
79707;BME280;69200;53.612;-2.416;2023-07-29T06:19:18;98500.53;;;16.30;77.09
79707;BME280;69200;53.612;-2.416;2023-07-29T06:21:43;98497.69;;;16.44;77.30
79707;BME280;69200;53.612;-2.416;2023-07-29T06:24:09;98491.56;;;16.38;76.82
79707;BME280;69200;53.612;-2.416;2023-07-29T06:26:34;98500.00;;;16.50;75.29
79707;BME280;69200;53.612;-2.416;2023-07-29T06:28:59;98514.38;;;16.78;74.37
79707;BME280;69200;53.612;-2.416;2023-07-29T06:31:25;98514.88;;;17.12;75.65
79707;BME280;69200;53.612;-2.416;2023-07-29T06:33:50;98519.63;;;16.97;73.46
79707;BME280;69200;53.612;-2.416;2023-07-29T06:36:16;98518.91;;;16.83;75.05
79707;BME280;69200;53.612;-2.416;2023-07-29T06:38:41;98516.97;;;16.84;75.29
79707;BME280;69200;53.612;-2.416;2023-07-29T06:41:07;98513.25;;;16.80;74.79
79707;BME280;69200;53.612;-2.416;2023-07-29T06:43:32;98508.06;;;17.00;75.29
79707;BME280;69200;53.612;-2.416;2023-07-29T06:45:58;98500.94;;;16.99;73.26
79707;BME280;69200;53.612;-2.416;2023-07-29T06:48:23;98506.31;;;17.13;75.08
79707;BME280;69200;53.612;-2.416;2023-07-29T06:50:49;98520.88;;;16.91;73.25
79707;BME280;69200;53.612;-2.416;2023-07-29T06:53:18;98522.00;;;16.68;75.34
79707;BME280;69200;53.612;-2.416;2023-07-29T06:55:44;98529.38;;;16.14;76.14
79707;BME280;69200;53.612;-2.416;2023-07-29T06:58:10;98518.09;;;16.60;76.04
79707;BME280;69200;53.612;-2.416;2023-07-29T07:00:36;98527.75;;;16.13;76.51
79707;BME280;69200;53.612;-2.416;2023-07-29T07:03:01;98518.50;;;16.22;77.44
79707;BME280;69200;53.612;-2.416;2023-07-29T07:05:26;98514.44;;;15.98;79.36
79707;BME280;69200;53.612;-2.416;2023-07-29T07:07:52;98511.59;;;16.25;77.97
79707;BME280;69200;53.612;-2.416;2023-07-29T07:10:17;98523.91;;;16.14;78.38
79707;BME280;69200;53.612;-2.416;2023-07-29T07:12:43;98519.91;;;16.42;76.90
79707;BME280;69200;53.612;-2.416;2023-07-29T07:15:08;98527.69;;;16.27;77.61
79707;BME280;69200;53.612;-2.416;2023-07-29T07:17:34;98527.75;;;16.35;77.33
79707;BME280;69200;53.612;-2.416;2023-07-29T07:19:59;98522.16;;;16.40;79.54
79707;BME280;69200;53.612;-2.416;2023-07-29T07:22:24;98525.38;;;16.87;76.86
79707;BME280;69200;53.612;-2.416;2023-07-29T07:24:50;98517.06;;;16.47;76.96
79707;BME280;69200;53.612;-2.416;2023-07-29T07:27:15;98521.22;;;16.22;77.44
79707;BME280;69200;53.612;-2.416;2023-07-29T07:29:41;98517.28;;;15.92;79.83
79707;BME280;69200;53.612;-2.416;2023-07-29T07:32:06;98513.81;;;16.23;78.68
79707;BME280;69200;53.612;-2.416;2023-07-29T07:34:32;98528.50;;;16.27;77.79
79707;BME280;69200;53.612;-2.416;2023-07-29T07:36:58;98515.94;;;16.26;76.50
79707;BME280;69200;53.612;-2.416;2023-07-29T07:39:24;98517.31;;;16.15;77.27
79707;BME280;69200;53.612;-2.416;2023-07-29T07:41:49;98524.31;;;16.07;77.05
79707;BME280;69200;53.612;-2.416;2023-07-29T07:44:15;98515.56;;;16.19;77.45
79707;BME280;69200;53.612;-2.416;2023-07-29T07:46:42;98528.25;;;16.15;76.93
79707;BME280;69200;53.612;-2.416;2023-07-29T07:49:08;98538.28;;;16.64;76.73
79707;BME280;69200;53.612;-2.416;2023-07-29T07:51:33;98532.31;;;16.04;76.76
79707;BME280;69200;53.612;-2.416;2023-07-29T07:53:58;98536.09;;;16.75;75.58
79707;BME280;69200;53.612;-2.416;2023-07-29T07:56:24;98540.06;;;16.91;73.58
79707;BME280;69200;53.612;-2.416;2023-07-29T07:58:49;98535.16;;;17.50;72.33
79707;BME280;69200;53.612;-2.416;2023-07-29T08:01:14;98545.44;;;17.76;70.84
79707;BME280;69200;53.612;-2.416;2023-07-29T08:03:40;98534.59;;;17.31;72.92
79707;BME280;69200;53.612;-2.416;2023-07-29T08:06:05;98536.50;;;17.22;71.46
79707;BME280;69200;53.612;-2.416;2023-07-29T08:08:31;98544.94;;;17.25;71.99
79707;BME280;69200;53.612;-2.416;2023-07-29T08:10:56;98552.50;;;17.28;71.92
79707;BME280;69200;53.612;-2.416;2023-07-29T08:13:23;98548.69;;;16.76;73.02
79707;BME280;69200;53.612;-2.416;2023-07-29T08:15:50;98551.63;;;17.11;74.62
79707;BME280;69200;53.612;-2.416;2023-07-29T08:18:16;98553.22;;;16.81;74.75
79707;BME280;69200;53.612;-2.416;2023-07-29T08:20:57;98549.03;;;16.83;73.34
79707;BME280;69200;53.612;-2.416;2023-07-29T08:23:24;98552.16;;;16.45;73.79
79707;BME280;69200;53.612;-2.416;2023-07-29T08:25:54;98548.97;;;16.97;72.94
79707;BME280;69200;53.612;-2.416;2023-07-29T08:28:22;98546.72;;;17.39;71.13
79707;BME280;69200;53.612;-2.416;2023-07-29T08:30:47;98538.41;;;17.61;71.28
79707;BME280;69200;53.612;-2.416;2023-07-29T08:33:13;98547.38;;;17.93;67.34
79707;BME280;69200;53.612;-2.416;2023-07-29T08:35:38;98530.31;;;17.47;68.91
79707;BME280;69200;53.612;-2.416;2023-07-29T08:38:03;98542.00;;;17.70;69.05
79707;BME280;69200;53.612;-2.416;2023-07-29T08:40:30;98528.59;;;17.20;71.37
79707;BME280;69200;53.612;-2.416;2023-07-29T08:42:58;98535.31;;;17.45;71.23
79707;BME280;69200;53.612;-2.416;2023-07-29T08:45:25;98531.53;;;17.72;71.14
79707;BME280;69200;53.612;-2.416;2023-07-29T08:47:55;98533.41;;;17.15;69.79
79707;BME280;69200;53.612;-2.416;2023-07-29T08:50:24;98534.25;;;17.24;69.89
79707;BME280;69200;53.612;-2.416;2023-07-29T08:52:51;98546.28;;;17.45;69.46
79707;BME280;69200;53.612;-2.416;2023-07-29T08:55:18;98543.88;;;17.52;69.26
79707;BME280;69200;53.612;-2.416;2023-07-29T08:57:44;98535.28;;;18.20;68.75
79707;BME280;69200;53.612;-2.416;2023-07-29T09:00:10;98530.28;;;18.04;67.37
79707;BME280;69200;53.612;-2.416;2023-07-29T09:02:36;98535.66;;;17.61;67.42
79707;BME280;69200;53.612;-2.416;2023-07-29T09:05:01;98536.09;;;17.37;67.25
79707;BME280;69200;53.612;-2.416;2023-07-29T09:07:28;98537.22;;;18.10;68.47
79707;BME280;69200;53.612;-2.416;2023-07-29T09:09:54;98533.03;;;18.39;66.22
79707;BME280;69200;53.612;-2.416;2023-07-29T09:12:20;98538.50;;;17.87;65.35
79707;BME280;69200;53.612;-2.416;2023-07-29T09:14:45;98542.78;;;17.62;67.07
79707;BME280;69200;53.612;-2.416;2023-07-29T09:17:10;98549.03;;;17.45;65.61
79707;BME280;69200;53.612;-2.416;2023-07-29T09:19:36;98552.13;;;17.13;66.30
79707;BME280;69200;53.612;-2.416;2023-07-29T09:22:01;98541.47;;;17.59;68.02
79707;BME280;69200;53.612;-2.416;2023-07-29T09:24:27;98532.34;;;17.73;64.47
79707;BME280;69200;53.612;-2.416;2023-07-29T09:26:55;98550.00;;;17.10;65.29
79707;BME280;69200;53.612;-2.416;2023-07-29T09:29:23;98551.38;;;16.98;66.19
79707;BME280;69200;53.612;-2.416;2023-07-29T09:31:52;98545.44;;;16.74;67.44
79707;BME280;69200;53.612;-2.416;2023-07-29T09:34:18;98545.28;;;16.70;68.79
79707;BME280;69200;53.612;-2.416;2023-07-29T09:36:43;98546.16;;;16.66;69.56
79707;BME280;69200;53.612;-2.416;2023-07-29T09:39:12;98547.28;;;16.65;69.61
79707;BME280;69200;53.612;-2.416;2023-07-29T09:41:40;98542.31;;;16.67;70.09
79707;BME280;69200;53.612;-2.416;2023-07-29T09:44:06;98548.41;;;17.09;68.27
79707;BME280;69200;53.612;-2.416;2023-07-29T09:46:36;98542.19;;;16.94;69.28
79707;BME280;69200;53.612;-2.416;2023-07-29T09:49:06;98530.94;;;17.04;68.11
79707;BME280;69200;53.612;-2.416;2023-07-29T09:51:37;98538.47;;;17.30;67.48
79707;BME280;69200;53.612;-2.416;2023-07-29T09:54:04;98535.25;;;17.28;67.01
79707;BME280;69200;53.612;-2.416;2023-07-29T09:56:30;98539.84;;;17.10;64.77
79707;BME280;69200;53.612;-2.416;2023-07-29T09:58:56;98546.13;;;17.42;65.20
79707;BME280;69200;53.612;-2.416;2023-07-29T10:01:22;98548.06;;;17.50;65.11
79707;BME280;69200;53.612;-2.416;2023-07-29T10:03:48;98545.34;;;17.58;64.13
79707;BME280;69200;53.612;-2.416;2023-07-29T10:06:14;98554.34;;;17.42;64.24
79707;BME280;69200;53.612;-2.416;2023-07-29T10:08:40;98553.59;;;17.58;63.20
79707;BME280;69200;53.612;-2.416;2023-07-29T10:11:07;98547.72;;;17.43;63.79
79707;BME280;69200;53.612;-2.416;2023-07-29T10:13:33;98544.16;;;17.82;65.93
79707;BME280;69200;53.612;-2.416;2023-07-29T10:15:59;98558.25;;;18.24;63.00
79707;BME280;69200;53.612;-2.416;2023-07-29T10:18:28;98555.16;;;18.42;62.63
79707;BME280;69200;53.612;-2.416;2023-07-29T10:20:56;98555.81;;;18.48;60.96
79707;BME280;69200;53.612;-2.416;2023-07-29T10:23:22;98560.81;;;18.81;59.46
79707;BME280;69200;53.612;-2.416;2023-07-29T10:25:58;98556.28;;;18.93;61.88
79707;BME280;69200;53.612;-2.416;2023-07-29T10:28:29;98555.97;;;19.24;57.18
79707;BME280;69200;53.612;-2.416;2023-07-29T10:30:56;98550.47;;;19.24;53.49
79707;BME280;69200;53.612;-2.416;2023-07-29T10:33:22;98558.31;;;19.05;51.94
79707;BME280;69200;53.612;-2.416;2023-07-29T10:35:47;98560.38;;;19.55;51.94
79707;BME280;69200;53.612;-2.416;2023-07-29T10:38:13;98568.13;;;19.70;50.51
79707;BME280;69200;53.612;-2.416;2023-07-29T10:40:47;98574.63;;;19.66;49.92
79707;BME280;69200;53.612;-2.416;2023-07-29T10:43:24;98572.59;;;19.83;50.50
79707;BME280;69200;53.612;-2.416;2023-07-29T10:45:49;98577.56;;;19.52;50.42
79707;BME280;69200;53.612;-2.416;2023-07-29T10:51:29;98589.41;;;18.97;53.92
79707;BME280;69200;53.612;-2.416;2023-07-29T10:54:09;98583.78;;;19.78;51.54
79707;BME280;69200;53.612;-2.416;2023-07-29T10:56:36;98577.13;;;19.79;49.80
79707;BME280;69200;53.612;-2.416;2023-07-29T10:59:22;98582.78;;;19.83;49.67
79707;BME280;69200;53.612;-2.416;2023-07-29T11:01:59;98577.31;;;20.04;51.60
79707;BME280;69200;53.612;-2.416;2023-07-29T11:04:29;98582.63;;;20.09;48.96
79707;BME280;69200;53.612;-2.416;2023-07-29T11:09:51;98590.50;;;19.13;50.22
79707;BME280;69200;53.612;-2.416;2023-07-29T11:12:39;98586.00;;;18.91;51.47
79707;BME280;69200;53.612;-2.416;2023-07-29T11:15:16;98598.34;;;19.32;52.69
79707;BME280;69200;53.612;-2.416;2023-07-29T11:20:08;98596.53;;;18.89;52.21
79707;BME280;69200;53.612;-2.416;2023-07-29T11:22:33;98587.13;;;18.99;51.70
79707;BME280;69200;53.612;-2.416;2023-07-29T11:24:59;98599.56;;;19.05;52.20
79707;BME280;69200;53.612;-2.416;2023-07-29T11:27:25;98589.00;;;19.71;51.50
79707;BME280;69200;53.612;-2.416;2023-07-29T11:29:50;98590.59;;;20.02;50.52
79707;BME280;69200;53.612;-2.416;2023-07-29T11:32:21;98589.56;;;20.15;49.15
79707;BME280;69200;53.612;-2.416;2023-07-29T11:34:46;98589.16;;;20.67;49.21
79707;BME280;69200;53.612;-2.416;2023-07-29T11:37:12;98600.91;;;21.09;48.32
79707;BME280;69200;53.612;-2.416;2023-07-29T11:39:41;98591.91;;;21.00;51.87
79707;BME280;69200;53.612;-2.416;2023-07-29T11:42:07;98597.69;;;20.74;49.18
79707;BME280;69200;53.612;-2.416;2023-07-29T11:44:32;98598.25;;;20.47;51.51
79707;BME280;69200;53.612;-2.416;2023-07-29T11:46:57;98608.47;;;20.67;48.19
79707;BME280;69200;53.612;-2.416;2023-07-29T11:49:23;98602.84;;;20.13;48.47
79707;BME280;69200;53.612;-2.416;2023-07-29T11:51:48;98618.59;;;20.75;48.23
79707;BME280;69200;53.612;-2.416;2023-07-29T11:54:15;98608.25;;;20.51;49.22
79707;BME280;69200;53.612;-2.416;2023-07-29T11:56:41;98612.88;;;20.38;48.53
79707;BME280;69200;53.612;-2.416;2023-07-29T11:59:06;98621.06;;;20.26;49.30
79707;BME280;69200;53.612;-2.416;2023-07-29T12:01:32;98623.66;;;20.02;50.18
79707;BME280;69200;53.612;-2.416;2023-07-29T12:03:58;98620.47;;;19.91;50.42
79707;BME280;69200;53.612;-2.416;2023-07-29T12:06:24;98629.81;;;19.69;51.22
79707;BME280;69200;53.612;-2.416;2023-07-29T12:08:51;98616.72;;;19.49;51.21
79707;BME280;69200;53.612;-2.416;2023-07-29T12:11:16;98630.81;;;20.24;50.83
79707;BME280;69200;53.612;-2.416;2023-07-29T12:13:43;98627.56;;;20.72;49.99
79707;BME280;69200;53.612;-2.416;2023-07-29T12:16:08;98616.53;;;20.51;50.38
79707;BME280;69200;53.612;-2.416;2023-07-29T12:18:33;98630.75;;;20.32;52.08
79707;BME280;69200;53.612;-2.416;2023-07-29T12:20:59;98616.41;;;19.89;52.70
79707;BME280;69200;53.612;-2.416;2023-07-29T12:23:25;98626.56;;;20.26;52.56
79707;BME280;69200;53.612;-2.416;2023-07-29T12:26:00;98613.66;;;20.48;51.82
79707;BME280;69200;53.612;-2.416;2023-07-29T12:28:26;98619.63;;;20.50;50.81
79707;BME280;69200;53.612;-2.416;2023-07-29T12:30:57;98631.09;;;20.31;51.25
79707;BME280;69200;53.612;-2.416;2023-07-29T12:33:34;98619.72;;;20.32;48.88
79707;BME280;69200;53.612;-2.416;2023-07-29T12:36:00;98622.94;;;20.34;50.55
79707;BME280;69200;53.612;-2.416;2023-07-29T12:38:26;98611.50;;;20.03;49.39
79707;BME280;69200;53.612;-2.416;2023-07-29T12:40:52;98617.34;;;20.01;50.64
79707;BME280;69200;53.612;-2.416;2023-07-29T12:43:17;98621.25;;;19.53;50.98
79707;BME280;69200;53.612;-2.416;2023-07-29T12:45:44;98616.59;;;20.63;51.46
79707;BME280;69200;53.612;-2.416;2023-07-29T12:48:10;98609.41;;;21.04;52.68
79707;BME280;69200;53.612;-2.416;2023-07-29T12:50:38;98613.50;;;20.86;49.14
79707;BME280;69200;53.612;-2.416;2023-07-29T12:53:09;98623.81;;;20.26;49.86
79707;BME280;69200;53.612;-2.416;2023-07-29T12:55:37;98617.13;;;20.78;51.72
79707;BME280;69200;53.612;-2.416;2023-07-29T12:58:03;98617.53;;;20.88;48.40
79707;BME280;69200;53.612;-2.416;2023-07-29T13:00:29;98616.88;;;20.50;49.63